createdAt,value
2023-07-18T00:00:53.448Z,0.77
2023-07-18T00:05:19.192Z,0.50
2023-07-18T00:09:44.561Z,0.73
2023-07-18T00:14:10.117Z,0.63
2023-07-18T00:18:35.357Z,0.50
2023-07-18T00:23:00.637Z,0.55
2023-07-18T00:27:25.847Z,0.95
2023-07-18T00:31:51.737Z,0.40
2023-07-18T00:36:17.927Z,0.70
2023-07-18T00:40:43.423Z,0.30
2023-07-18T00:45:09.648Z,0.60
2023-07-18T00:49:35.933Z,0.70
2023-07-18T00:54:01.888Z,0.80
2023-07-18T00:58:29.524Z,0.40
2023-07-18T01:02:55.198Z,0.40
2023-07-18T01:07:21.459Z,0.57
2023-07-18T01:11:47.006Z,0.40
2023-07-18T01:16:13.939Z,0.40
2023-07-18T01:20:40.867Z,0.63
2023-07-18T01:25:06.743Z,0.60
2023-07-18T01:29:34.058Z,0.40
2023-07-18T01:33:59.402Z,0.55
2023-07-18T01:38:30.611Z,0.60
2023-07-18T01:42:57.033Z,0.60
2023-07-18T01:47:22.497Z,0.60
2023-07-18T01:51:48.105Z,0.55
2023-07-18T01:56:13.521Z,0.80
2023-07-18T02:00:38.781Z,0.60
2023-07-18T02:05:05.377Z,0.90
2023-07-18T02:09:30.673Z,0.70
2023-07-18T02:13:56.070Z,0.65
2023-07-18T02:18:21.498Z,1.67
2023-07-18T02:22:47.393Z,1.20
2023-07-18T02:27:12.880Z,1.23
2023-07-18T02:31:39.195Z,1.15
2023-07-18T02:36:07.518Z,1.73
2023-07-18T02:40:33.071Z,1.30
2023-07-18T02:44:58.677Z,1.60
2023-07-18T02:49:24.165Z,0.88
2023-07-18T02:53:52.958Z,0.90
2023-07-18T02:58:18.061Z,0.73
2023-07-18T03:02:43.694Z,0.80
2023-07-18T03:07:09.005Z,0.60
2023-07-18T03:11:34.405Z,0.70
2023-07-18T03:16:00.632Z,0.60
2023-07-18T03:20:25.911Z,1.00
2023-07-18T03:24:52.932Z,0.70
2023-07-18T03:29:19.165Z,0.65
2023-07-18T03:33:44.638Z,0.85
2023-07-18T03:38:10.213Z,0.57
2023-07-18T03:42:35.831Z,0.60
2023-07-18T03:47:11.218Z,1.08
2023-07-18T03:51:44.980Z,1.50
2023-07-18T03:56:10.590Z,0.93
2023-07-18T04:00:35.766Z,0.80
2023-07-18T04:05:01.187Z,0.88
2023-07-18T04:09:26.677Z,1.17
2023-07-18T04:13:52.184Z,1.02
2023-07-18T04:18:17.661Z,0.75
2023-07-18T04:22:43.330Z,0.70
2023-07-18T04:27:09.067Z,0.75
2023-07-18T04:31:34.500Z,1.33
2023-07-18T04:35:59.920Z,0.80
2023-07-18T04:40:25.744Z,0.90
2023-07-18T04:44:51.190Z,1.13
2023-07-18T04:49:17.482Z,1.50
2023-07-18T04:53:42.770Z,1.00
2023-07-18T04:58:09.184Z,0.90
2023-07-18T05:02:34.757Z,1.10
2023-07-18T05:07:02.805Z,1.10
2023-07-18T05:11:27.995Z,1.10
2023-07-18T05:15:53.439Z,1.20
2023-07-18T05:20:19.912Z,0.82
2023-07-18T05:24:45.120Z,1.10
2023-07-18T05:29:10.523Z,1.20
2023-07-18T05:33:36.049Z,1.05
2023-07-18T05:38:04.395Z,0.80
2023-07-18T05:42:29.719Z,0.93
2023-07-18T05:46:54.964Z,1.10
2023-07-18T05:51:20.705Z,1.30
2023-07-18T05:55:46.442Z,1.48
2023-07-18T06:00:12.619Z,1.23
2023-07-18T06:04:39.001Z,1.30
2023-07-18T06:09:04.177Z,2.00
2023-07-18T06:13:29.591Z,1.00
2023-07-18T06:17:55.132Z,1.92
2023-07-18T06:22:20.352Z,2.10
2023-07-18T06:26:49.979Z,0.90
2023-07-18T06:31:15.937Z,1.15
2023-07-18T06:35:42.707Z,1.42
2023-07-18T06:40:12.038Z,1.00
2023-07-18T06:44:37.640Z,1.35
2023-07-18T06:49:03.011Z,1.50
2023-07-18T06:53:28.595Z,0.77
2023-07-18T06:57:54.154Z,0.90
2023-07-18T07:02:19.502Z,0.70
2023-07-18T07:06:45.027Z,0.60
2023-07-18T07:11:11.133Z,0.45
2023-07-18T07:15:37.583Z,0.30
2023-07-18T07:20:05.303Z,0.30
2023-07-18T07:24:31.622Z,0.20
2023-07-18T07:28:57.076Z,0.30
2023-07-18T07:33:22.451Z,0.20
2023-07-18T07:37:48.311Z,0.30
2023-07-18T07:42:13.934Z,0.30
2023-07-18T07:46:38.978Z,0.30
2023-07-18T07:51:07.384Z,0.20
2023-07-18T07:55:33.053Z,0.10
2023-07-18T07:59:58.289Z,0.30
2023-07-18T08:04:23.727Z,0.10
2023-07-18T08:08:49.357Z,0.20
2023-07-18T08:13:18.142Z,0.47
2023-07-18T08:17:43.667Z,1.13
2023-07-18T08:22:10.178Z,0.40
2023-07-18T08:26:35.457Z,0.10
2023-07-18T08:31:04.419Z,1.75
2023-07-18T08:35:30.486Z,0.40
2023-07-18T08:39:56.087Z,0.20
2023-07-18T08:44:23.101Z,0.60
2023-07-18T08:48:51.914Z,0.10
2023-07-18T08:53:17.202Z,0.20
2023-07-18T08:57:42.786Z,0.30
2023-07-18T09:02:09.640Z,0.10
2023-07-18T09:06:34.992Z,0.20
2023-07-18T09:11:04.524Z,0.17
2023-07-18T09:15:30.853Z,0.20
2023-07-18T09:19:56.181Z,0.20
2023-07-18T09:24:31.978Z,0.20
2023-07-18T09:28:57.775Z,0.20
2023-07-18T09:33:25.815Z,0.32
2023-07-18T09:37:51.607Z,0.50
2023-07-18T09:42:20.255Z,1.00
2023-07-18T09:46:46.272Z,1.42
2023-07-18T09:51:16.695Z,0.60
2023-07-18T09:55:44.248Z,0.53
2023-07-18T10:00:13.105Z,0.30
2023-07-18T10:04:39.188Z,0.17
2023-07-18T10:09:05.028Z,0.40
2023-07-18T10:13:31.451Z,0.20
2023-07-18T10:18:17.250Z,0.20
2023-07-18T10:23:00.474Z,0.20
2023-07-18T10:27:39.277Z,0.40
2023-07-18T10:32:06.033Z,0.30
2023-07-18T10:36:31.484Z,0.10
2023-07-18T10:40:56.874Z,0.30
2023-07-18T10:45:22.335Z,0.10
2023-07-18T10:49:48.774Z,0.30
2023-07-18T10:54:14.345Z,0.20
2023-07-18T10:58:41.174Z,0.20
2023-07-18T11:03:06.355Z,0.20
2023-07-18T11:07:36.196Z,0.10
2023-07-18T11:12:01.479Z,0.10
2023-07-18T11:16:27.831Z,0.20
2023-07-18T11:20:55.215Z,0.10
2023-07-18T11:25:20.674Z,0.17
2023-07-18T11:29:58.801Z,0.20
2023-07-18T11:34:25.085Z,0.10
2023-07-18T11:38:53.351Z,0.20
2023-07-18T11:43:19.546Z,0.10
2023-07-18T11:47:48.572Z,0.20
2023-07-18T11:52:14.037Z,0.20
2023-07-18T11:56:39.532Z,0.38
2023-07-18T12:01:05.100Z,0.15
2023-07-18T12:05:30.342Z,0.10
2023-07-18T12:09:55.824Z,0.20
2023-07-18T12:14:21.196Z,0.10
2023-07-18T12:18:46.579Z,0.30
2023-07-18T12:23:11.999Z,0.10
2023-07-18T12:27:38.442Z,0.20
2023-07-18T12:32:05.797Z,0.30
2023-07-18T12:36:31.047Z,0.10
2023-07-18T12:40:56.446Z,0.22
2023-07-18T12:45:24.699Z,0.10
2023-07-18T12:54:19.157Z,0.10
2023-07-18T12:58:44.649Z,0.10
2023-07-18T13:03:10.360Z,0.10
2023-07-18T13:07:35.761Z,0.25
2023-07-18T13:12:01.224Z,0.20
2023-07-18T13:16:26.772Z,0.10
2023-07-18T13:20:52.247Z,0.10
2023-07-18T13:25:17.819Z,0.10
2023-07-18T13:29:44.101Z,0.10
2023-07-18T13:34:11.888Z,0.10
2023-07-18T13:38:39.722Z,0.10
2023-07-18T13:43:06.374Z,0.10
2023-07-18T13:47:32.233Z,0.10
2023-07-18T13:51:57.645Z,0.13
2023-07-18T13:56:23.262Z,0.25
2023-07-18T14:00:49.245Z,0.10
2023-07-18T14:05:14.563Z,0.15
2023-07-18T14:09:40.108Z,0.43
2023-07-18T14:14:05.506Z,0.00
2023-07-18T14:18:30.934Z,0.13
2023-07-18T14:22:56.488Z,0.10
2023-07-18T14:27:22.174Z,0.35
2023-07-18T14:31:47.552Z,0.10
2023-07-18T14:36:13.105Z,0.10
2023-07-18T14:40:38.630Z,0.10
2023-07-18T14:45:04.424Z,0.10
2023-07-18T14:49:29.617Z,0.17
2023-07-18T14:53:55.145Z,0.40
2023-07-18T14:58:21.768Z,0.17
2023-07-18T15:02:48.992Z,0.10
2023-07-18T15:07:14.986Z,0.10
2023-07-18T15:11:41.356Z,0.32
2023-07-18T15:16:06.724Z,0.15
2023-07-18T15:20:34.109Z,0.10
2023-07-18T15:24:59.451Z,0.05
2023-07-18T15:29:24.741Z,0.20
2023-07-18T15:33:50.739Z,0.10
2023-07-18T15:38:15.948Z,0.10
2023-07-18T15:42:41.807Z,0.10
2023-07-18T15:47:06.833Z,0.10
2023-07-18T15:51:32.896Z,0.10
2023-07-18T15:55:58.061Z,0.10
2023-07-18T16:00:23.478Z,0.20
2023-07-18T16:04:48.963Z,0.10
2023-07-18T16:09:14.573Z,0.10
2023-07-18T16:13:40.099Z,0.10
2023-07-18T16:18:05.694Z,0.10
2023-07-18T16:22:31.217Z,0.40
2023-07-18T16:26:57.377Z,0.22
2023-07-18T16:31:22.798Z,0.20
2023-07-18T16:35:48.547Z,0.17
2023-07-18T16:40:14.085Z,0.10
2023-07-18T16:44:39.550Z,0.10
2023-07-18T16:49:05.133Z,0.15
2023-07-18T16:53:30.384Z,0.10
2023-07-18T16:57:55.864Z,0.10
2023-07-18T17:02:21.487Z,0.30
2023-07-18T17:06:46.993Z,0.10
2023-07-18T17:11:12.551Z,0.10
2023-07-18T17:15:37.999Z,0.20
2023-07-18T17:20:08.172Z,0.10
2023-07-18T17:24:33.762Z,0.20
2023-07-18T17:28:59.591Z,0.10
2023-07-18T17:33:24.883Z,0.10
2023-07-18T17:37:50.510Z,0.60
2023-07-18T17:42:15.636Z,0.25
2023-07-18T17:46:41.066Z,0.30
2023-07-18T17:51:06.513Z,0.57
2023-07-18T17:55:32.117Z,0.70
2023-07-18T17:59:58.899Z,0.35
2023-07-18T18:04:24.227Z,0.30
2023-07-18T18:08:49.580Z,0.30
2023-07-18T18:13:16.024Z,0.60
2023-07-18T18:17:41.275Z,0.47
2023-07-18T18:22:06.859Z,0.50
2023-07-18T18:26:32.465Z,0.47
2023-07-18T18:30:57.923Z,0.73
2023-07-18T18:35:23.202Z,0.98
2023-07-18T18:39:48.772Z,0.40
2023-07-18T18:44:14.246Z,0.50
2023-07-18T18:48:39.666Z,0.63
2023-07-18T18:53:04.928Z,0.40
2023-07-18T18:57:31.163Z,0.30
2023-07-18T19:01:56.306Z,0.30
2023-07-18T19:06:22.836Z,0.40
2023-07-18T19:11:04.828Z,0.30
2023-07-18T19:15:32.817Z,0.30
2023-07-18T19:19:58.253Z,0.20
2023-07-18T19:24:23.772Z,0.40
2023-07-18T19:28:49.292Z,0.43
2023-07-18T19:33:14.781Z,0.25
2023-07-18T19:37:40.245Z,0.30
2023-07-18T19:42:07.024Z,0.30
2023-07-18T19:46:32.764Z,0.30
2023-07-18T19:50:58.260Z,0.25
2023-07-18T19:55:24.155Z,0.30
2023-07-18T19:59:49.792Z,0.20
2023-07-18T20:04:15.720Z,0.30
2023-07-18T20:08:41.539Z,0.60
2023-07-18T20:13:06.893Z,0.57
2023-07-18T20:17:32.356Z,0.93
2023-07-18T20:21:57.918Z,0.60
2023-07-18T20:26:23.617Z,0.73
2023-07-18T20:30:52.098Z,0.52
2023-07-18T20:35:17.446Z,0.68
2023-07-18T20:39:42.923Z,0.75
2023-07-18T20:44:09.177Z,0.82
2023-07-18T20:48:34.696Z,0.88
2023-07-18T20:53:00.607Z,0.88
2023-07-18T20:57:25.715Z,0.80
2023-07-18T21:01:51.439Z,1.00
2023-07-18T21:06:16.831Z,0.85
2023-07-18T21:10:42.281Z,1.15
2023-07-18T21:15:09.552Z,0.80
2023-07-18T21:19:34.933Z,1.50
2023-07-18T21:24:00.804Z,1.15
2023-07-18T21:28:26.544Z,0.70
2023-07-18T21:32:51.980Z,0.95
2023-07-18T21:37:17.300Z,0.70
2023-07-18T21:41:42.915Z,0.90
2023-07-18T21:46:08.502Z,0.82
2023-07-18T21:50:33.999Z,1.48
2023-07-18T21:54:59.576Z,1.17
2023-07-18T21:59:26.290Z,0.50
2023-07-18T22:03:51.893Z,0.70
2023-07-18T22:08:17.459Z,1.00
2023-07-18T22:12:43.086Z,1.17
2023-07-18T22:17:08.781Z,0.75
2023-07-18T22:21:34.213Z,0.73
2023-07-18T22:26:12.269Z,0.55
2023-07-18T22:30:39.866Z,0.57
2023-07-18T22:35:05.703Z,0.93
2023-07-18T22:39:36.494Z,0.80
2023-07-18T22:44:03.263Z,0.70
2023-07-18T22:48:28.824Z,0.90
2023-07-18T22:52:54.327Z,0.80
2023-07-18T22:57:19.926Z,0.90
2023-07-18T23:01:45.318Z,0.77
2023-07-18T23:06:10.636Z,0.60
2023-07-18T23:10:35.939Z,1.00
2023-07-18T23:15:01.236Z,0.63
2023-07-18T23:19:26.819Z,0.70
2023-07-18T23:23:52.304Z,0.60
2023-07-18T23:28:17.906Z,0.80
2023-07-18T23:32:43.179Z,1.63
2023-07-18T23:37:08.526Z,0.90
2023-07-18T23:41:33.878Z,0.70
2023-07-18T23:45:59.283Z,0.65
2023-07-18T23:50:25.011Z,0.70
2023-07-18T23:54:50.207Z,0.52
2023-07-18T23:59:15.671Z,0.60
